Time;durP1;ratioP1;P1;durP2;ratioP2;P2;SDS_P1;SDS_P2;PMS_P1;PMS_P2;Temp;Humidity;BMP_temperature;BMP_pressure;BME280_temperature;BME280_humidity;BME280_pressure;Samples;Min_cycle;Max_cycle;Signal;HPM_P1;HPM_P2
2022/04/28 00:02:17;;;;;;;2.87;1.83;;;;;;;16.37;67.55;99509.34;5115778;28;20191;-68
2022/04/28 00:04:44;;;;;;;6.33;2.20;;;;;;;16.26;68.15;99518.19;5115489;28;20222;-68
2022/04/28 00:07:11;;;;;;;2.87;2.53;;;;;;;16.14;68.69;99514.69;5115702;28;20230;-68
2022/04/28 00:09:38;;;;;;;2.57;2.37;;;;;;;15.97;69.29;99513.72;5115454;28;20194;-67
2022/04/28 00:12:10;;;;;;;3.27;2.30;;;;;;;16.02;69.05;99516.53;5115405;28;20835;-67
2022/04/28 00:14:37;;;;;;;2.50;2.30;;;;;;;16.09;68.91;99506.53;5115660;28;20191;-67
2022/04/28 00:17:04;;;;;;;2.67;2.43;;;;;;;16.11;68.90;99507.09;5115157;28;20240;-68
2022/04/28 00:19:31;;;;;;;2.50;2.30;;;;;;;15.94;69.75;99515.00;5115886;28;20194;-68
2022/04/28 00:21:57;;;;;;;2.30;2.10;;;;;;;15.81;70.25;99515.22;5115470;28;20187;-68
2022/04/28 00:24:24;;;;;;;2.60;2.50;;;;;;;15.89;70.23;99507.66;5115069;28;20699;-68
2022/04/28 00:26:51;;;;;;;2.50;2.33;;;;;;;15.90;69.70;99513.84;5115374;28;20194;-67
2022/04/28 00:29:20;;;;;;;2.33;2.23;;;;;;;15.90;69.83;99514.63;5115040;28;20696;-68
2022/04/28 00:31:47;;;;;;;2.90;2.43;;;;;;;15.89;69.82;99507.66;5114875;28;20190;-67
2022/04/28 00:34:14;;;;;;;2.73;2.13;;;;;;;15.93;69.47;99511.50;5114995;28;20195;-67
2022/04/28 00:36:41;;;;;;;2.80;2.50;;;;;;;15.88;69.44;99501.72;5116056;28;20191;-66
2022/04/28 00:39:07;;;;;;;2.53;2.23;;;;;;;15.83;69.19;99503.22;5114962;28;20195;-67
2022/04/28 00:41:34;;;;;;;3.80;2.50;;;;;;;15.89;69.79;99512.22;5115178;28;20195;-67
2022/04/28 00:44:01;;;;;;;4.60;2.77;;;;;;;15.69;70.13;99509.81;5114945;28;20223;-67
2022/04/28 00:46:30;;;;;;;2.87;2.67;;;;;;;15.76;70.67;99513.22;5114515;28;20726;-68
2022/04/28 00:51:41;;;;;;;4.17;3.20;;;;;;;15.70;70.01;99516.00;5115127;28;20263;-67
2022/04/28 00:54:08;;;;;;;3.20;3.00;;;;;;;15.74;70.17;99512.63;5114584;28;20230;-66
2022/04/28 00:56:35;;;;;;;2.93;2.73;;;;;;;15.82;70.10;99511.47;5114891;28;20283;-67
2022/04/28 00:59:04;;;;;;;3.40;3.10;;;;;;;15.88;69.98;99516.75;5115057;28;20187;-67
2022/04/28 01:01:32;;;;;;;5.97;2.90;;;;;;;15.94;70.00;99517.69;5114862;28;20253;-67
2022/04/28 01:04:00;;;;;;;4.07;3.43;;;;;;;15.83;69.92;99513.94;5114685;28;20253;-67
2022/04/28 01:06:27;;;;;;;3.53;3.23;;;;;;;15.72;70.47;99500.50;5114671;28;20299;-67
2022/04/28 01:08:56;;;;;;;4.97;3.80;;;;;;;15.50;71.73;99505.56;5114291;28;20622;-67
2022/04/28 01:11:23;;;;;;;5.43;3.57;;;;;;;15.64;71.43;99506.16;5114349;28;20190;-67
2022/04/28 01:13:50;;;;;;;4.40;3.27;;;;;;;15.75;71.09;99506.22;5114017;28;20195;-67
2022/04/28 01:16:17;;;;;;;4.07;3.43;;;;;;;15.82;71.18;99504.25;5114061;28;20190;-66
2022/04/28 01:18:45;;;;;;;7.63;4.00;;;;;;;15.86;71.01;99502.75;5113842;28;20679;-67
2022/04/28 01:21:13;;;;;;;5.93;3.33;;;;;;;15.93;70.14;99500.78;5114864;28;20568;-67
2022/04/28 01:23:40;;;;;;;4.63;4.23;;;;;;;15.98;70.33;99500.91;5114276;28;20248;-67
2022/04/28 01:26:06;;;;;;;4.13;3.47;;;;;;;16.04;69.98;99498.38;5114307;28;20194;-67
2022/04/28 01:28:34;;;;;;;4.37;3.97;;;;;;;16.07;70.47;99497.88;5114816;28;20192;-67
2022/04/28 01:31:02;;;;;;;6.20;4.27;;;;;;;16.03;71.30;99510.94;5114376;28;20294;-67
2022/04/28 01:33:29;;;;;;;6.87;4.53;;;;;;;16.06;70.69;99512.34;5114217;28;20202;-67
2022/04/28 01:35:56;;;;;;;8.33;4.47;;;;;;;16.03;70.82;99510.94;5113795;28;20243;-67
2022/04/28 01:38:24;;;;;;;5.63;4.77;;;;;;;16.02;71.63;99506.63;5113993;28;20653;-67
2022/04/28 01:40:51;;;;;;;7.97;4.60;;;;;;;15.92;71.03;99513.59;5113678;28;20200;-67
2022/04/28 01:43:18;;;;;;;6.67;4.10;;;;;;;15.89;71.20;99502.28;5113579;28;20222;-67
2022/04/28 01:45:45;;;;;;;4.90;4.33;;;;;;;15.93;71.00;99508.03;5113398;28;20655;-67
2022/04/28 01:48:11;;;;;;;7.53;4.20;;;;;;;15.93;71.21;99509.88;5113538;28;20190;-67
2022/04/28 01:50:38;;;;;;;6.90;3.83;;;;;;;15.92;70.68;99527.00;5113471;28;20239;-67
2022/04/28 01:55:52;;;;;;;7.93;4.27;;;;;;;15.87;71.41;99514.28;5113523;28;20228;-67
2022/04/28 01:58:19;;;;;;;4.90;4.43;;;;;;;15.84;72.13;99520.91;5113288;28;20278;-67
2022/04/28 02:00:46;;;;;;;12.77;4.10;;;;;;;15.81;72.18;99521.38;5113384;28;20569;-67
2022/04/28 02:03:12;;;;;;;4.90;4.10;;;;;;;15.79;72.61;99520.78;5113302;28;20206;-67
2022/04/28 02:05:39;;;;;;;4.67;4.23;;;;;;;15.76;73.07;99515.88;5112929;28;20187;-68
2022/04/28 02:08:06;;;;;;;8.10;4.10;;;;;;;15.75;73.71;99516.13;5113832;28;20191;-67
2022/04/28 02:10:33;;;;;;;5.47;4.30;;;;;;;15.70;74.28;99516.81;5113403;28;20194;-67
2022/04/28 02:13:01;;;;;;;5.87;4.40;;;;;;;15.62;74.31;99516.31;5113335;28;20244;-67
2022/04/28 02:15:27;;;;;;;10.03;4.67;;;;;;;15.48;74.72;99518.34;5112849;28;20568;-67
2022/04/28 02:17:54;;;;;;;5.90;4.37;;;;;;;15.36;75.50;99517.47;5113076;28;20190;-67
2022/04/28 02:20:21;;;;;;;10.27;4.20;;;;;;;15.31;75.66;99516.47;5113258;28;20195;-67
2022/04/28 02:22:47;;;;;;;5.53;3.93;;;;;;;15.19;76.55;99521.78;5112571;28;20198;-67
2022/04/28 02:25:14;;;;;;;5.03;4.27;;;;;;;15.10;76.72;99517.78;5113276;28;20225;-67
2022/04/28 02:27:41;;;;;;;8.90;4.27;;;;;;;15.11;77.54;99519.41;5113624;28;20248;-66
2022/04/28 02:30:10;;;;;;;10.80;4.60;;;;;;;15.13;77.38;99517.34;5112710;28;20186;-67
2022/04/28 02:35:20;;;;;;;16.53;6.07;;;;;;;15.17;77.63;99515.84;5112862;28;20704;-67
2022/04/28 02:37:47;;;;;;;22.53;5.87;;;;;;;15.16;78.21;99516.88;5112934;28;20627;-67
2022/04/28 02:40:16;;;;;;;54.00;8.77;;;;;;;15.13;78.20;99511.16;5112903;28;20252;-67
2022/04/28 02:42:43;;;;;;;43.00;7.10;;;;;;;15.13;78.24;99520.03;5113113;28;20194;-67
2022/04/28 02:45:11;;;;;;;48.67;9.13;;;;;;;15.11;77.97;99514.06;5112628;28;20317;-67
2022/04/28 02:47:37;;;;;;;37.50;6.87;;;;;;;15.11;78.94;99515.94;5112483;28;20191;-67
2022/04/28 02:50:05;;;;;;;39.30;7.17;;;;;;;15.12;79.11;99510.34;5112233;28;20655;-67
2022/04/28 02:52:32;;;;;;;20.80;5.80;;;;;;;15.13;79.05;99520.03;5112033;28;20230;-69
2022/04/28 02:54:59;;;;;;;20.00;5.10;;;;;;;15.15;78.61;99525.16;5112075;28;20606;-67
2022/04/28 02:57:26;;;;;;;18.90;5.33;;;;;;;15.11;78.85;99524.75;5112033;28;20620;-67
2022/04/28 02:59:52;;;;;;;14.37;4.83;;;;;;;15.06;78.97;99521.94;5113512;28;20198;-67
2022/04/28 03:02:20;;;;;;;13.83;5.83;;;;;;;15.05;79.85;99525.69;5112461;28;20194;-67
2022/04/28 03:04:47;;;;;;;7.60;4.57;;;;;;;15.06;79.41;99529.16;5112518;28;20358;-66
2022/04/28 03:12:55;;;;;;;9.77;4.40;;;;;;;15.07;80.46;99539.63;5053168;28;20720;-67
2022/04/28 03:15:22;;;;;;;11.67;5.70;;;;;;;15.03;79.92;99538.44;5092406;28;20194;-67
2022/04/28 03:17:50;;;;;;;8.00;4.50;;;;;;;15.05;80.26;99541.72;5112381;28;20187;-67
2022/04/28 03:20:17;;;;;;;14.07;4.70;;;;;;;15.08;79.56;99549.28;5112521;28;20195;-67
2022/04/28 03:22:44;;;;;;;6.67;4.83;;;;;;;14.88;80.32;99543.38;5112290;28;20247;-68
2022/04/28 03:25:11;;;;;;;8.47;5.33;;;;;;;14.82;80.45;99540.72;5112044;28;20248;-66
2022/04/28 03:27:38;;;;;;;7.10;4.90;;;;;;;14.76;81.04;99542.47;5112658;28;20191;-67
2022/04/28 03:30:07;;;;;;;15.67;4.80;;;;;;;14.64;81.42;99556.75;5112038;28;20195;-67
2022/04/28 03:32:34;;;;;;;7.17;5.83;;;;;;;14.56;81.54;99557.03;5112182;28;20608;-66
2022/04/28 03:35:02;;;;;;;10.77;7.13;;;;;;;14.46;82.56;99556.75;5116343;28;20229;-66
2022/04/28 03:37:29;;;;;;;8.20;7.43;;;;;;;14.48;82.09;99579.53;5116512;28;20202;-66
2022/04/28 03:39:56;;;;;;;8.63;6.60;;;;;;;14.42;83.44;99575.03;5116028;28;20194;-67
2022/04/28 03:42:22;;;;;;;12.27;6.30;;;;;;;14.43;83.19;99584.72;5115804;28;20194;-67
2022/04/28 03:44:49;;;;;;;12.10;6.63;;;;;;;14.47;84.16;99585.94;5115799;28;20790;-67
2022/04/28 03:47:16;;;;;;;10.87;6.23;;;;;;;14.47;83.90;99585.09;5115484;28;20732;-67
2022/04/28 03:49:43;;;;;;;10.20;5.90;;;;;;;14.45;83.85;99593.31;5115667;28;20198;-67
2022/04/28 03:52:11;;;;;;;9.87;6.43;;;;;;;14.50;83.99;99601.50;5115948;28;20194;-68
2022/04/28 03:54:37;;;;;;;7.50;6.53;;;;;;;14.50;83.76;99606.84;5115386;28;20720;-67
2022/04/28 03:57:04;;;;;;;17.27;6.13;;;;;;;14.43;84.34;99605.28;5116010;28;20251;-67
2022/04/28 03:59:31;;;;;;;11.70;6.00;;;;;;;14.43;84.91;99615.97;5115885;28;20187;-68
2022/04/28 04:01:58;;;;;;;7.23;6.30;;;;;;;14.58;84.90;99609.25;5115697;28;20191;-67
2022/04/28 04:04:24;;;;;;;13.00;6.13;;;;;;;14.73;83.48;99617.75;5115180;28;20218;-67
2022/04/28 04:06:51;;;;;;;9.23;5.67;;;;;;;14.81;83.07;99622.84;5115347;28;20222;-67
2022/04/28 04:09:19;;;;;;;11.87;5.50;;;;;;;14.90;82.01;99624.19;5115280;28;20191;-68
2022/04/28 04:11:46;;;;;;;12.00;4.73;;;;;;;14.98;82.09;99621.22;5115741;28;20194;-68
2022/04/28 04:14:13;;;;;;;14.00;5.70;;;;;;;15.03;82.10;99624.03;5115662;28;20202;-67
2022/04/28 04:16:39;;;;;;;6.97;5.80;;;;;;;15.09;80.03;99639.22;5115467;28;20195;-66
2022/04/28 04:19:06;;;;;;;9.63;5.80;;;;;;;15.19;80.40;99644.88;5115206;28;20194;-68
2022/04/28 04:21:33;;;;;;;11.40;5.27;;;;;;;15.39;81.89;99650.03;5115055;28;20581;-68
2022/04/28 04:23:59;;;;;;;6.67;5.90;;;;;;;16.00;79.57;99647.25;5115479;28;20282;-68
2022/04/28 04:26:27;;;;;;;9.57;5.73;;;;;;;16.36;77.56;99650.63;5115475;28;20198;-69
2022/04/28 04:28:54;;;;;;;7.90;5.10;;;;;;;16.84;77.16;99666.59;5115136;28;20247;-69
2022/04/28 04:34:05;;;;;;;7.07;4.97;;;;;;;17.76;69.69;99671.94;5115648;28;20180;-69
2022/04/28 04:36:31;;;;;;;10.57;5.23;;;;;;;18.18;71.25;99671.41;5115077;28;20194;-69
2022/04/28 04:38:58;;;;;;;14.17;5.67;;;;;;;19.08;67.33;99666.81;5114957;28;20222;-63
2022/04/28 04:41:25;;;;;;;8.83;5.23;;;;;;;20.29;62.22;99680.81;5115100;28;20188;-63
2022/04/28 04:43:53;;;;;;;10.17;5.30;;;;;;;21.44;58.47;99689.91;5114636;28;20191;-65
2022/04/28 04:46:19;;;;;;;6.47;4.73;;;;;;;22.01;56.03;99693.47;5113920;28;20191;-63
2022/04/28 04:48:46;;;;;;;18.57;6.03;;;;;;;22.79;52.09;99698.53;5113672;28;20199;-67
2022/04/28 04:51:13;;;;;;;5.57;5.00;;;;;;;23.04;49.76;99701.28;5111137;28;20252;-66
2022/04/28 04:53:39;;;;;;;14.97;6.30;;;;;;;23.79;48.63;99695.72;5114724;28;20194;-66
2022/04/28 04:56:07;;;;;;;5.63;4.10;;;;;;;24.28;44.83;99690.38;5114670;28;20264;-69
2022/04/28 04:58:34;;;;;;;7.03;4.23;;;;;;;24.79;45.41;99691.69;5114814;28;20226;-69
2022/04/28 05:01:04;;;;;;;8.37;4.77;;;;;;;25.37;42.79;99707.00;5112894;28;20288;-69
2022/04/28 05:03:30;;;;;;;10.43;5.03;;;;;;;25.82;41.58;99694.78;5095202;28;20546;-75
2022/04/28 05:05:57;;;;;;;12.17;4.23;;;;;;;26.59;40.64;99699.81;5094099;28;20296;-76
2022/04/28 05:08:23;;;;;;;10.30;3.57;;;;;;;26.60;40.10;99691.34;5108816;28;20187;-88
2022/04/28 05:10:51;;;;;;;6.77;3.63;;;;;;;26.41;40.61;99692.44;5114680;28;20186;-87
2022/04/28 05:13:18;;;;;;;9.67;4.23;;;;;;;25.75;39.03;99705.22;5114573;28;20639;-80
2022/04/28 05:15:47;;;;;;;7.93;4.33;;;;;;;25.55;42.65;99700.00;5114517;28;20270;-79
2022/04/28 05:18:15;;;;;;;27.73;5.00;;;;;;;25.45;41.12;99700.09;5114320;28;20204;-81
2022/04/28 05:20:42;;;;;;;14.13;4.80;;;;;;;25.13;42.10;99691.66;5114412;28;20270;-82
2022/04/28 05:23:08;;;;;;;14.10;4.17;;;;;;;25.78;40.98;99704.63;5114395;28;20250;-83
2022/04/28 05:25:36;;;;;;;8.77;4.30;;;;;;;26.37;40.21;99703.09;5114510;28;20354;-79
2022/04/28 05:28:03;;;;;;;7.70;4.10;;;;;;;25.95;40.32;99710.44;5113864;28;20191;-79
2022/04/28 05:30:30;;;;;;;13.80;4.57;;;;;;;25.32;40.95;99692.63;5115001;28;20271;-80
2022/04/28 05:32:56;;;;;;;9.67;4.20;;;;;;;25.20;42.58;99703.03;5110064;28;20271;-82
2022/04/28 05:35:24;;;;;;;16.77;4.37;;;;;;;25.16;42.42;99707.41;5113719;28;20202;-80
2022/04/28 05:37:51;;;;;;;11.30;4.73;;;;;;;25.00;40.85;99709.47;5113693;28;20190;-87
2022/04/28 05:40:18;;;;;;;59.27;6.87;;;;;;;25.61;41.21;99707.00;5113613;28;20219;-83
2022/04/28 05:45:45;;;;;;;5.30;3.20;;;;;;;25.87;37.53;99725.50;5113556;28;20206;-78
2022/04/28 05:48:13;;;;;;;10.10;3.70;;;;;;;26.19;37.53;99728.41;5113865;28;20186;-79
2022/04/28 05:50:41;;;;;;;7.07;3.70;;;;;;;27.31;36.67;99729.22;5113746;28;20187;-79
2022/04/28 05:53:08;;;;;;;4.63;3.30;;;;;;;27.06;35.04;99724.13;5114036;28;20190;-88
2022/04/28 05:55:35;;;;;;;12.17;3.83;;;;;;;27.90;35.47;99721.03;5113504;28;20198;-78
2022/04/28 05:58:02;;;;;;;9.17;3.10;;;;;;;27.92;34.58;99724.25;5112662;28;20195;-78
2022/04/28 06:00:29;;;;;;;8.70;3.13;;;;;;;28.24;34.47;99727.69;5114188;28;20224;-78
2022/04/28 06:02:56;;;;;;;5.53;3.13;;;;;;;28.44;34.02;99726.47;5113535;28;20191;-78
2022/04/28 06:05:23;;;;;;;12.47;2.70;;;;;;;28.21;34.37;99730.19;5113230;28;20215;-79
2022/04/28 06:07:51;;;;;;;4.30;2.47;;;;;;;27.27;33.84;99723.53;5113471;28;20226;-78
2022/04/28 06:10:18;;;;;;;2.80;2.50;;;;;;;27.74;33.88;99728.69;5113403;28;20191;-79
2022/04/28 06:12:45;;;;;;;3.70;2.50;;;;;;;28.10;33.23;99726.06;5113453;28;20194;-77
2022/04/28 06:15:13;;;;;;;5.70;2.63;;;;;;;27.65;34.04;99726.94;5112419;28;20199;-77
2022/04/28 06:17:40;;;;;;;13.50;3.30;;;;;;;26.85;35.48;99720.94;5110912;28;20187;-77
2022/04/28 06:20:08;;;;;;;4.37;2.80;;;;;;;26.64;36.15;99719.63;5110698;28;20255;-77
2022/04/28 06:22:35;;;;;;;4.03;2.73;;;;;;;26.91;35.69;99718.94;5110934;28;20618;-78
2022/04/28 06:25:03;;;;;;;4.67;2.70;;;;;;;27.57;34.46;99722.19;5110844;28;20283;-76
2022/04/28 06:27:30;;;;;;;3.00;2.27;;;;;;;27.77;32.36;99722.59;5110745;28;20194;-78
2022/04/28 06:29:57;;;;;;;9.87;4.60;;;;;;;27.92;32.25;99726.97;5111320;28;20226;-76
2022/04/28 06:32:23;;;;;;;3.17;2.33;;;;;;;27.73;32.07;99718.06;5107343;28;20257;-76
2022/04/28 06:34:50;;;;;;;4.30;2.40;;;;;;;26.59;34.64;99727.88;5092762;28;20192;-72
2022/04/28 06:37:17;;;;;;;3.77;2.13;;;;;;;26.02;34.85;99724.53;5092381;28;20681;-74
2022/04/28 06:39:44;;;;;;;11.13;2.87;;;;;;;25.63;35.81;99719.22;5093546;28;20191;-76
2022/04/28 06:42:13;;;;;;;2.87;2.23;;;;;;;25.60;36.67;99719.78;5099292;28;20198;-75
2022/04/28 06:44:40;;;;;;;2.63;2.27;;;;;;;26.03;35.11;99718.78;5092684;28;20191;-74
2022/04/28 06:47:06;;;;;;;3.63;2.27;;;;;;;26.27;35.99;99718.75;5110441;28;20236;-79
2022/04/28 06:49:34;;;;;;;4.20;2.30;;;;;;;26.67;34.79;99724.50;5108336;28;20721;-77
2022/04/28 06:52:01;;;;;;;5.77;2.90;;;;;;;27.00;34.64;99720.69;5111655;28;20210;-74
2022/04/28 06:54:28;;;;;;;3.53;2.53;;;;;;;27.35;33.31;99725.56;5111941;28;20191;-79
2022/04/28 06:56:55;;;;;;;4.47;2.63;;;;;;;27.73;33.54;99720.78;5112306;28;20554;-79
2022/04/28 06:59:23;;;;;;;3.10;1.77;;;;;;;28.08;32.50;99718.19;5112546;28;20226;-75
2022/04/28 07:01:50;;;;;;;4.30;2.40;;;;;;;28.64;30.04;99724.09;5112309;28;20663;-70
2022/04/28 07:04:17;;;;;;;3.70;2.30;;;;;;;28.70;29.25;99719.28;5112460;28;20221;-72
2022/04/28 07:06:43;;;;;;;1.97;1.87;;;;;;;28.96;29.11;99718.38;5107461;28;20230;-71
2022/04/28 07:09:10;;;;;;;3.47;1.70;;;;;;;29.27;28.61;99730.22;5091957;28;20191;-70
2022/04/28 07:11:37;;;;;;;2.27;2.07;;;;;;;28.94;28.64;99712.41;5091827;28;20222;-70
2022/04/28 07:14:04;;;;;;;4.27;2.20;;;;;;;28.84;29.58;99711.84;5092237;28;20622;-70
2022/04/28 07:16:32;;;;;;;5.10;2.10;;;;;;;28.45;29.97;99719.88;5092222;28;20191;-70
2022/04/28 07:18:58;;;;;;;6.70;2.87;;;;;;;28.07;30.59;99713.03;5091749;28;20195;-71
2022/04/28 07:21:25;;;;;;;2.40;1.97;;;;;;;27.95;31.07;99702.63;5092425;28;20257;-68
2022/04/28 07:23:52;;;;;;;7.13;2.20;;;;;;;28.02;30.81;99704.94;5091952;28;20292;-69
2022/04/28 07:26:19;;;;;;;2.47;2.10;;;;;;;28.24;30.50;99716.75;5092858;28;20568;-70
2022/04/28 07:28:45;;;;;;;7.50;2.93;;;;;;;28.51;30.51;99711.25;5091964;28;20248;-71
2022/04/28 07:31:12;;;;;;;5.83;2.47;;;;;;;28.31;30.74;99713.59;5091678;28;20196;-70
2022/04/28 07:33:40;;;;;;;3.33;2.43;;;;;;;28.41;30.67;99711.47;5100554;28;20197;-69
2022/04/28 07:36:07;;;;;;;5.77;2.33;;;;;;;28.75;30.64;99711.78;5112341;28;20252;-70
2022/04/28 07:38:34;;;;;;;4.93;2.47;;;;;;;28.62;30.40;99711.81;5112279;28;20186;-69
2022/04/28 07:41:02;;;;;;;6.57;2.50;;;;;;;28.69;30.63;99709.47;5111688;28;20191;-70
2022/04/28 07:43:29;;;;;;;4.03;2.30;;;;;;;28.58;30.60;99714.38;5111833;28;20688;-70
2022/04/28 07:45:55;;;;;;;2.87;2.00;;;;;;;28.89;30.30;99711.72;5112944;28;20294;-71
2022/04/28 07:48:22;;;;;;;3.00;2.20;;;;;;;29.28;29.70;99709.94;5112170;28;20190;-70
2022/04/28 07:50:51;;;;;;;2.67;2.30;;;;;;;29.46;29.17;99710.84;5111785;28;20609;-70
2022/04/28 07:53:18;;;;;;;5.97;2.30;;;;;;;29.46;28.89;99705.38;5112151;28;20195;-70
2022/04/28 07:56:10;;;;;;;6.73;3.23;;;;;;;29.27;29.80;99706.72;5112039;28;20198;-70
2022/04/28 07:58:32;;;;;;;2.90;2.60;;;;;;;29.40;28.97;99703.09;5111297;28;20226;-71
2022/04/28 08:00:59;;;;;;;3.80;2.50;;;;;;;29.02;29.51;99703.50;5112060;28;20281;-70
2022/04/28 08:03:26;;;;;;;5.70;2.80;;;;;;;28.77;30.59;99695.06;5112071;28;20201;-70
2022/04/28 08:05:54;;;;;;;10.17;2.60;;;;;;;28.58;31.09;99700.69;5101904;28;20235;-69
2022/04/28 08:08:21;;;;;;;5.57;3.00;;;;;;;28.52;31.03;99692.91;5105580;28;20187;-69
2022/04/28 08:10:48;;;;;;;3.03;2.27;;;;;;;28.58;30.85;99695.22;5111991;28;20195;-69
2022/04/28 08:13:15;;;;;;;2.60;2.27;;;;;;;28.93;30.78;99696.31;5112063;28;20251;-70
2022/04/28 08:15:41;;;;;;;5.73;2.70;;;;;;;28.92;31.36;99686.50;5111550;28;20659;-68
2022/04/28 08:18:08;;;;;;;2.47;2.17;;;;;;;28.61;31.44;99688.31;5111686;28;20217;-70
2022/04/28 08:20:35;;;;;;;4.33;2.60;;;;;;;28.60;31.46;99693.00;5113195;28;20247;-70
2022/04/28 08:23:03;;;;;;;2.90;2.50;;;;;;;28.31;31.65;99687.09;5115640;28;20191;-70
2022/04/28 08:25:30;;;;;;;5.10;2.50;;;;;;;28.48;31.54;99684.53;5094157;28;20215;-70
2022/04/28 08:27:57;;;;;;;6.57;2.47;;;;;;;28.51;31.77;99691.31;5094692;28;20676;-70
2022/04/28 08:30:23;;;;;;;3.67;2.40;;;;;;;28.57;31.75;99690.06;5094611;28;20594;-72
2022/04/28 08:32:50;;;;;;;3.80;2.90;;;;;;;28.59;31.98;99685.13;5094969;28;20248;-70
2022/04/28 08:35:18;;;;;;;11.30;2.77;;;;;;;28.58;31.78;99688.97;5094765;28;20199;-70
2022/04/28 08:37:45;;;;;;;3.80;2.57;;;;;;;28.47;31.07;99693.03;5094598;28;20663;-70
2022/04/28 08:40:13;;;;;;;7.60;3.13;;;;;;;28.27;31.87;99682.53;5099589;28;20306;-69
2022/04/28 08:42:42;;;;;;;5.47;3.03;;;;;;;28.01;31.65;99687.72;5114770;28;20198;-70
2022/04/28 08:45:09;;;;;;;3.67;2.73;;;;;;;28.28;31.66;99684.13;5114985;28;20187;-69
2022/04/28 08:47:35;;;;;;;4.67;2.77;;;;;;;28.27;31.68;99688.81;5114724;28;20191;-71
2022/04/28 08:50:03;;;;;;;6.17;2.20;;;;;;;28.55;30.73;99684.13;5114980;28;20252;-71
2022/04/28 08:52:30;;;;;;;4.90;2.33;;;;;;;28.95;29.93;99678.47;5114646;28;20222;-70
2022/04/28 08:54:57;;;;;;;7.83;2.03;;;;;;;29.16;29.54;99685.06;5114774;28;20247;-70
2022/04/28 08:57:25;;;;;;;5.57;2.23;;;;;;;29.29;29.04;99684.16;5114806;28;20195;-70
2022/04/28 08:59:55;;;;;;;7.40;2.30;;;;;;;29.21;29.21;99678.66;5114737;28;20191;-70
2022/04/28 09:02:24;;;;;;;4.20;1.97;;;;;;;29.27;28.77;99673.88;5114904;28;20311;-71
2022/04/28 09:04:51;;;;;;;5.13;2.00;;;;;;;29.05;28.05;99674.69;5114671;28;20190;-68
2022/04/28 09:07:27;;;;;;;2.60;2.00;;;;;;;28.72;28.05;99678.78;5114192;28;20235;-71
2022/04/28 09:09:54;;;;;;;5.13;2.10;;;;;;;28.78;28.08;99672.06;5113912;28;20182;-71
2022/04/28 09:12:21;;;;;;;3.27;2.10;;;;;;;28.56;28.76;99672.06;5114282;28;20618;-71
2022/04/28 09:14:49;;;;;;;2.50;1.73;;;;;;;28.29;29.46;99670.19;5114404;28;20197;-69
2022/04/28 09:17:16;;;;;;;3.77;2.20;;;;;;;28.43;29.38;99667.44;5114618;28;20190;-71
2022/04/28 09:19:43;;;;;;;5.47;2.53;;;;;;;28.61;29.00;99670.00;5114089;28;20671;-70
2022/04/28 09:22:13;;;;;;;2.43;2.00;;;;;;;28.62;29.08;99662.59;5114994;28;20255;-71
2022/04/28 09:24:43;;;;;;;4.87;2.30;;;;;;;28.65;29.00;99660.06;5114604;28;20193;-71
2022/04/28 09:27:10;;;;;;;2.57;2.00;;;;;;;28.67;28.99;99667.97;5113932;28;20297;-70
2022/04/28 09:29:39;;;;;;;3.83;2.07;;;;;;;28.32;29.28;99661.38;5113867;28;20260;-70
2022/04/28 09:32:12;;;;;;;2.70;2.10;;;;;;;28.58;28.77;99665.16;5113580;28;20206;-69
2022/04/28 09:34:47;;;;;;;1.83;1.60;;;;;;;28.87;27.91;99664.75;5105081;28;20191;-68
2022/04/28 09:37:17;;;;;;;5.53;2.03;;;;;;;29.02;27.49;99667.09;5093333;28;20187;-69
2022/04/28 09:42:39;;;;;;;3.03;1.90;;;;;;;28.96;27.18;99660.13;5113537;28;20217;-68
2022/04/28 09:45:08;;;;;;;2.53;1.90;;;;;;;28.95;27.08;99656.56;5113402;28;20659;-74
2022/04/28 09:47:37;;;;;;;5.97;1.97;;;;;;;28.50;27.58;99648.69;5113644;28;20218;-72
2022/04/28 09:50:13;;;;;;;2.30;1.90;;;;;;;28.27;28.57;99647.00;5106373;28;20195;-73
2022/04/28 09:52:42;;;;;;;2.27;1.97;;;;;;;28.46;28.91;99647.69;5097827;28;20190;-74
2022/04/28 09:55:09;;;;;;;2.30;1.80;;;;;;;28.53;28.72;99650.78;5113246;28;20711;-78
2022/04/28 09:57:36;;;;;;;2.83;1.80;;;;;;;28.54;28.56;99652.44;5113894;28;20256;-76
2022/04/28 10:00:04;;;;;;;4.97;2.63;;;;;;;28.68;27.84;99650.44;5113190;28;20244;-73
2022/04/28 10:02:32;;;;;;;2.57;2.10;;;;;;;28.81;28.14;99649.56;5113088;28;20198;-73
2022/04/28 10:05:00;;;;;;;2.47;1.50;;;;;;;29.07;28.34;99636.88;5113265;28;20187;-73
2022/04/28 10:07:28;;;;;;;2.97;1.87;;;;;;;28.81;27.20;99633.16;5113560;28;20575;-74
2022/04/28 10:09:55;;;;;;;3.33;1.80;;;;;;;28.72;27.58;99626.81;5113417;28;20278;-72
2022/04/28 10:12:25;;;;;;;5.60;2.70;;;;;;;28.73;28.69;99625.69;5113332;28;20190;-72
2022/04/28 10:14:54;;;;;;;2.27;1.53;;;;;;;28.77;27.94;99626.69;5114184;28;20624;-73
2022/04/28 10:17:26;;;;;;;6.27;2.57;;;;;;;28.83;28.40;99630.94;5113155;28;20190;-73
2022/04/28 10:19:58;;;;;;;2.27;2.07;;;;;;;28.75;28.36;99628.94;5112993;28;20235;-74
2022/04/28 10:22:32;;;;;;;5.23;2.07;;;;;;;28.56;29.16;99609.19;5113208;28;20183;-75
2022/04/28 10:33:21;;;;;;;1.87;1.70;;;;;;;28.62;29.59;99619.66;5113026;28;20331;-75
2022/04/28 10:35:54;;;;;;;2.10;1.73;;;;;;;28.69;30.08;99617.31;5112842;28;20250;-73
2022/04/28 10:38:23;;;;;;;4.77;2.03;;;;;;;28.90;30.28;99614.88;5113915;28;20286;-71
2022/04/28 10:40:59;;;;;;;2.27;2.07;;;;;;;28.42;30.16;99613.91;5112437;28;20673;-74
2022/04/28 10:43:27;;;;;;;1.73;1.63;;;;;;;27.55;32.39;99598.84;5112644;28;20190;-65
2022/04/28 10:45:56;;;;;;;2.47;2.27;;;;;;;27.23;32.00;99604.41;5112530;28;20191;-65
2022/04/28 10:48:29;;;;;;;1.90;1.77;;;;;;;27.10;32.23;99616.06;5112533;28;20191;-64
2022/04/28 10:51:05;;;;;;;5.13;2.00;;;;;;;27.10;33.49;99625.06;5113057;28;20178;-65
2022/04/28 10:53:34;;;;;;;6.07;2.07;;;;;;;26.63;34.29;99611.72;5112843;28;20247;-63
2022/04/28 10:56:13;;;;;;;4.07;2.10;;;;;;;26.61;33.81;99629.44;5112452;28;20213;-65
2022/04/28 10:58:40;;;;;;;6.03;2.20;;;;;;;26.57;33.64;99631.13;5112662;28;20187;-65
2022/04/28 11:01:07;;;;;;;2.20;2.10;;;;;;;26.57;35.71;99625.66;5103913;28;20659;-65
2022/04/28 11:03:53;;;;;;;3.03;2.23;;;;;;;26.59;35.78;99612.59;5092284;28;20191;-66
2022/04/28 11:06:22;;;;;;;4.77;2.37;;;;;;;26.89;34.31;99614.81;5092062;28;20231;-65
2022/04/28 11:08:53;;;;;;;3.40;3.10;;;;;;;26.88;35.53;99615.91;5109573;28;20589;-65
2022/04/28 11:11:20;;;;;;;17.20;3.50;;;;;;;26.88;34.11;99615.91;5112679;28;20571;-66
2022/04/28 11:13:51;;;;;;;2.83;2.20;;;;;;;26.88;35.37;99605.84;5112296;28;20194;-67
2022/04/28 11:16:18;;;;;;;3.67;2.27;;;;;;;27.03;33.96;99596.56;5112784;28;20191;-66
2022/04/28 11:18:46;;;;;;;4.83;2.43;;;;;;;27.33;34.65;99596.00;5104891;28;20621;-66
2022/04/28 11:21:14;;;;;;;5.30;2.13;;;;;;;27.57;34.24;99596.63;5091652;28;20192;-66
2022/04/28 11:23:44;;;;;;;2.53;2.20;;;;;;;27.69;32.88;99588.72;5092052;28;20223;-66
2022/04/28 11:26:13;;;;;;;4.33;2.40;;;;;;;27.59;32.46;99583.47;5091493;28;20197;-65
2022/04/28 11:28:41;;;;;;;5.37;1.77;;;;;;;27.42;33.14;99589.56;5091656;28;20192;-64
2022/04/28 11:31:11;;;;;;;6.37;2.23;;;;;;;27.47;32.97;99589.44;5091669;28;20257;-64
2022/04/28 11:33:42;;;;;;;2.37;2.17;;;;;;;27.48;33.36;99585.59;5091765;28;20187;-65
2022/04/28 11:36:25;;;;;;;2.57;2.00;;;;;;;27.56;33.00;99589.56;5091971;28;20278;-64
2022/04/28 11:38:54;;;;;;;3.53;2.87;;;;;;;27.62;36.19;99580.13;5092298;28;20237;-66
2022/04/28 11:41:34;;;;;;;9.43;3.13;;;;;;;27.56;33.08;99586.81;5106155;28;20197;-65
2022/04/28 11:44:05;;;;;;;3.30;2.80;;;;;;;27.21;34.17;99576.59;5111970;28;20270;-64
2022/04/28 11:46:31;;;;;;;17.23;3.40;;;;;;;26.93;34.73;99583.09;5112116;28;20585;-64
2022/04/28 11:48:58;;;;;;;8.57;3.20;;;;;;;27.11;35.95;99584.97;5111868;28;20198;-64
2022/04/28 11:51:25;;;;;;;2.43;2.23;;;;;;;27.13;35.31;99582.72;5111749;28;20220;-65
2022/04/28 11:53:53;;;;;;;7.07;3.23;;;;;;;27.35;37.21;99585.59;5112025;28;20273;-64
2022/04/28 11:56:24;;;;;;;3.80;2.57;;;;;;;27.61;36.05;99579.31;5114699;28;20569;-65
2022/04/28 11:58:53;;;;;;;5.30;3.03;;;;;;;27.80;35.20;99580.00;5115565;28;20193;-65
2022/04/28 12:01:21;;;;;;;3.60;2.90;;;;;;;28.05;36.47;99584.16;5115592;28;20194;-65
2022/04/28 12:03:53;;;;;;;3.33;2.33;;;;;;;28.41;34.99;99582.19;5115505;28;20247;-65
2022/04/28 12:06:21;;;;;;;10.30;2.47;;;;;;;28.58;32.92;99585.09;5115012;28;20234;-65